Time;durP1;ratioP1;P1;durP2;ratioP2;P2;SDS_P1;SDS_P2;PMS_P1;PMS_P2;Temp;Humidity;BMP_temperature;BMP_pressure;BME280_temperature;BME280_humidity;BME280_pressure;Samples;Min_cycle;Max_cycle;Signal;HPM_P1;HPM_P2
2021/10/20 00:00:47;;;;;;;;;14.00;11.33;;;;;19.55;55.96;101146.88;4998814;28;45387;-60
2021/10/20 00:03:12;;;;;;;;;7.00;7.00;;;;;19.55;55.94;101142.44;4998868;28;45368;-60
2021/10/20 00:05:38;;;;;;;;;11.67;10.67;;;;;19.55;55.87;101131.78;4998889;28;45511;-62
2021/10/20 00:08:07;;;;;;;;;8.67;8.67;;;;;19.56;56.11;101132.66;4998508;28;46114;-64
2021/10/20 00:10:34;;;;;;;;;10.67;10.67;;;;;19.56;56.11;101135.34;4998614;28;45217;-60
2021/10/20 00:12:59;;;;;;;;;11.67;10.67;;;;;19.55;56.18;101121.09;4998576;28;45269;-60
2021/10/20 00:15:25;;;;;;;;;9.33;9.33;;;;;19.54;56.02;101124.66;4998820;28;45300;-60
2021/10/20 00:17:51;;;;;;;;;7.67;7.33;;;;;19.54;55.94;101127.31;4998417;28;47228;-63
2021/10/20 00:20:20;;;;;;;;;8.00;8.00;;;;;19.56;55.96;101128.19;4998397;28;45469;-61
2021/10/20 00:22:45;;;;;;;;;10.33;8.33;;;;;19.55;56.09;101110.44;4997401;28;45468;-62
2021/10/20 00:25:12;;;;;;;;;9.67;8.67;;;;;19.56;56.03;101111.34;4998718;28;45576;-63
2021/10/20 00:27:38;;;;;;;;;15.00;10.00;;;;;19.55;56.02;101105.13;4998384;28;47381;-61
2021/10/20 00:30:04;;;;;;;;;10.00;9.00;;;;;19.55;56.05;101105.13;4998043;28;45327;-62
2021/10/20 00:32:30;;;;;;;;;11.33;9.67;;;;;19.55;55.94;101107.78;4998202;28;45345;-63
2021/10/20 00:34:55;;;;;;;;;8.33;7.67;;;;;19.55;55.95;101099.78;4998659;28;45296;-60
2021/10/20 00:37:20;;;;;;;;;11.33;11.00;;;;;19.55;55.80;101097.13;4998181;28;47118;-63
2021/10/20 00:39:46;;;;;;;;;13.67;10.00;;;;;19.54;56.13;101098.00;4998509;28;45687;-60
2021/10/20 00:42:11;;;;;;;;;10.00;10.00;;;;;19.55;55.87;101102.44;4998301;28;45436;-61
2021/10/20 00:44:52;;;;;;;;;10.33;10.33;;;;;19.55;56.04;101094.44;4997338;28;45455;-60
2021/10/20 00:47:18;;;;;;;;;12.33;10.33;;;;;19.56;56.08;101090.84;4997419;28;45290;-59
2021/10/20 00:49:44;;;;;;;;;12.67;12.33;;;;;19.56;55.90;101074.84;4997961;28;45314;-61
2021/10/20 00:52:11;;;;;;;;;9.00;9.00;;;;;19.56;55.94;101066.84;4998096;28;45279;-60
2021/10/20 00:54:37;;;;;;;;;10.67;8.67;;;;;19.56;56.03;101071.34;4998057;28;45408;-60
2021/10/20 00:57:04;;;;;;;;;14.33;9.33;;;;;19.56;55.94;101072.19;4997753;28;46203;-60
2021/10/20 00:59:30;;;;;;;;;10.67;8.67;;;;;19.55;55.94;101073.13;4997734;28;45266;-63
2021/10/20 01:01:56;;;;;;;;;9.00;9.00;;;;;19.56;56.05;101058.88;4997901;28;45349;-61
2021/10/20 01:04:21;;;;;;;;;10.00;8.67;;;;;19.57;55.79;101059.75;4997812;28;45238;-61
2021/10/20 01:06:47;;;;;;;;;12.00;12.00;;;;;19.58;55.95;101060.63;4997516;28;46306;-61
2021/10/20 01:09:12;;;;;;;;;12.67;9.67;;;;;19.55;55.93;101051.78;4997730;28;45259;-62
2021/10/20 01:11:38;;;;;;;;;11.33;9.00;;;;;19.58;56.11;101057.97;4997715;28;45337;-60
2021/10/20 01:14:03;;;;;;;;;11.00;11.00;;;;;19.56;56.14;101061.53;4998142;28;45159;-62
2021/10/20 01:16:29;;;;;;;;;8.33;7.33;;;;;19.56;56.09;101055.34;4997521;28;46015;-60
2021/10/20 01:18:55;;;;;;;;;8.00;7.67;;;;;19.56;56.05;101047.34;4997737;28;45404;-61
2021/10/20 01:21:21;;;;;;;;;9.67;7.67;;;;;19.55;55.94;101043.78;4997735;28;45430;-62
2021/10/20 01:23:48;;;;;;;;;10.33;9.00;;;;;19.57;56.03;101043.75;4997702;28;45356;-65
2021/10/20 01:26:14;;;;;;;;;3.00;3.00;;;;;19.57;56.01;101038.41;4997430;28;46439;-61
2021/10/20 01:28:40;;;;;;;;;8.67;7.67;;;;;19.55;56.05;101030.44;4997505;28;45435;-61
2021/10/20 01:31:05;;;;;;;;;10.00;10.00;;;;;19.58;55.97;101028.63;4997278;28;45321;-59
2021/10/20 01:33:31;;;;;;;;;10.00;8.67;;;;;19.57;56.08;101025.09;4997741;28;45340;-59
2021/10/20 01:35:56;;;;;;;;;11.67;9.00;;;;;19.58;56.28;101025.97;4997306;28;47049;-61
2021/10/20 01:38:22;;;;;;;;;16.00;9.00;;;;;19.56;56.25;101018.88;4997148;28;45417;-62
2021/10/20 01:40:47;;;;;;;;;11.00;8.33;;;;;19.58;55.98;101026.88;4997570;28;45238;-63
2021/10/20 01:43:12;;;;;;;;;10.67;8.67;;;;;19.56;56.17;101016.19;4997436;28;45439;-60
2021/10/20 01:45:38;;;;;;;;;7.33;7.33;;;;;19.56;56.03;101016.19;4997016;28;46324;-59
2021/10/20 01:48:04;;;;;;;;;10.67;9.00;;;;;19.56;56.14;101005.53;4997328;28;45239;-60
2021/10/20 01:50:29;;;;;;;;;8.00;8.00;;;;;19.57;55.98;101006.41;4997393;28;45384;-61
2021/10/20 01:52:55;;;;;;;;;10.67;8.00;;;;;19.57;55.97;101003.75;4997332;28;45672;-62
2021/10/20 01:55:20;;;;;;;;;10.67;9.00;;;;;19.56;55.90;100992.19;4996653;28;46460;-63
2021/10/20 01:57:47;;;;;;;;;11.33;9.00;;;;;19.58;55.97;100991.31;4996968;28;45231;-60
2021/10/20 02:00:14;;;;;;;;;9.33;8.67;;;;;19.56;56.24;100984.19;4997394;28;45471;-61
2021/10/20 02:02:40;;;;;;;;;10.33;10.33;;;;;19.56;56.13;100972.69;4996803;28;45376;-61
2021/10/20 02:05:11;;;;;;;;;12.33;11.33;;;;;19.56;56.00;100965.53;4996914;28;46148;-59
2021/10/20 02:07:36;;;;;;;;;12.00;9.00;;;;;19.56;55.97;100954.88;4996721;28;45404;-61
2021/10/20 02:10:11;;;;;;;;;10.33;10.00;;;;;19.56;56.16;100962.88;4996335;28;45444;-60
2021/10/20 02:12:38;;;;;;;;;13.00;9.00;;;;;19.57;56.17;100947.75;4997156;28;45418;-60
2021/10/20 02:15:04;;;;;;;;;13.00;11.00;;;;;19.57;56.24;100953.09;4996623;28;47118;-61
2021/10/20 02:17:29;;;;;;;;;12.00;10.67;;;;;19.57;56.19;100942.44;4996527;28;45439;-60
2021/10/20 02:19:54;;;;;;;;;10.33;10.33;;;;;19.56;56.18;100941.53;4996801;28;45466;-61
2021/10/20 02:22:20;;;;;;;;;11.33;9.33;;;;;19.58;56.05;100943.31;4997037;28;45305;-60
2021/10/20 02:24:45;;;;;;;;;9.00;8.67;;;;;19.58;56.11;100935.31;4996492;28;46819;-59
2021/10/20 02:27:11;;;;;;;;;15.67;11.33;;;;;19.56;56.06;100930.88;4996884;28;45417;-60
2021/10/20 02:29:37;;;;;;;;;12.00;10.33;;;;;19.57;56.24;100929.09;4996706;28;45436;-60
2021/10/20 02:32:02;;;;;;;;;12.67;10.00;;;;;19.57;56.19;100915.75;4996618;28;45234;-60
2021/10/20 02:34:28;;;;;;;;;7.67;7.67;;;;;19.56;56.24;100916.69;4996542;28;46272;-59
2021/10/20 02:36:54;;;;;;;;;9.67;9.67;;;;;19.58;56.31;100906.00;4995732;28;45385;-62
2021/10/20 02:39:19;;;;;;;;;10.67;10.00;;;;;19.56;56.17;100898.88;4978997;28;45308;-59
2021/10/20 02:41:44;;;;;;;;;10.00;10.00;;;;;19.56;56.16;100898.88;4996788;28;45351;-61
2021/10/20 02:44:10;;;;;;;;;11.00;11.00;;;;;19.58;56.21;100895.31;4995738;28;46437;-62
2021/10/20 02:46:36;;;;;;;;;12.00;10.67;;;;;19.56;56.36;100888.22;4996579;28;45369;-64
2021/10/20 02:49:02;;;;;;;;;11.33;9.67;;;;;19.57;56.26;100883.78;4996532;28;45417;-63
2021/10/20 02:51:29;;;;;;;;;10.33;8.00;;;;;19.56;56.30;100874.03;4996757;28;45456;-62
2021/10/20 02:53:56;;;;;;;;;13.00;10.67;;;;;19.56;56.35;100872.22;4995910;28;46375;-60
2021/10/20 02:56:22;;;;;;;;;13.33;11.33;;;;;19.55;56.34;100875.81;4996148;28;45334;-61
2021/10/20 02:58:47;;;;;;;;;11.33;10.67;;;;;19.56;56.34;100866.03;4996398;28;45201;-64
2021/10/20 03:01:12;;;;;;;;;12.67;12.67;;;;;19.56;56.40;100858.03;4996726;28;45441;-63
2021/10/20 03:03:38;;;;;;;;;13.67;11.33;;;;;19.56;56.20;100866.03;4996093;28;46111;-62
2021/10/20 03:06:03;;;;;;;;;12.00;11.33;;;;;19.56;56.58;100869.56;4996289;28;45270;-61
2021/10/20 03:08:30;;;;;;;;;12.00;10.67;;;;;19.56;56.38;100866.88;4998581;28;45374;-60
2021/10/20 03:10:56;;;;;;;;;13.00;9.00;;;;;19.56;56.43;100872.22;4999690;28;45242;-59
2021/10/20 03:13:21;;;;;;;;;14.00;12.00;;;;;19.56;56.35;100877.53;4999653;28;45466;-61
2021/10/20 03:15:46;;;;;;;;;9.67;7.67;;;;;19.58;56.24;100890.00;4999591;28;45447;-61
2021/10/20 03:18:12;;;;;;;;;11.00;8.67;;;;;19.56;56.42;100885.53;4999660;28;45442;-65
2021/10/20 03:20:37;;;;;;;;;10.33;9.00;;;;;19.56;56.34;100890.03;4999871;28;45433;-60
2021/10/20 03:23:03;;;;;;;;;11.67;10.67;;;;;19.58;56.35;100909.53;4999150;28;47118;-59
2021/10/20 03:25:28;;;;;;;;;13.33;9.67;;;;;19.56;56.38;100895.34;4999586;28;45535;-61
2021/10/20 03:27:54;;;;;;;;;13.00;10.33;;;;;19.56;56.30;100904.22;4999327;28;45413;-62
2021/10/20 03:30:23;;;;;;;;;13.00;11.00;;;;;19.56;56.38;100890.88;4999499;28;45451;-59
2021/10/20 03:32:49;;;;;;;;;13.67;11.33;;;;;19.56;56.27;100877.53;4999102;28;46043;-60
2021/10/20 03:35:16;;;;;;;;;12.67;11.33;;;;;19.56;56.27;100872.22;4999220;28;45298;-64
2021/10/20 03:37:41;;;;;;;;;10.67;10.00;;;;;19.58;56.29;100879.31;4999372;28;45264;-60
2021/10/20 03:40:07;;;;;;;;;10.00;9.00;;;;;19.58;56.43;100868.66;4999158;28;45440;-60
2021/10/20 03:42:33;;;;;;;;;12.33;9.33;;;;;19.56;56.21;100855.38;4999021;28;46764;-62
2021/10/20 03:44:59;;;;;;;;;12.00;9.67;;;;;19.57;56.64;100867.78;4999153;28;45351;-60
2021/10/20 03:47:26;;;;;;;;;12.00;11.67;;;;;19.58;56.36;100877.53;4999008;28;45376;-62
2021/10/20 03:49:52;;;;;;;;;11.00;10.33;;;;;19.57;56.63;100857.09;4998325;28;45426;-60
2021/10/20 03:52:18;;;;;;;;;10.67;10.00;;;;;19.58;56.41;100855.31;4998760;28;46275;-63
2021/10/20 03:54:44;;;;;;;;;11.33;10.33;;;;;19.57;56.54;100859.78;4998767;28;45308;-61
2021/10/20 03:57:09;;;;;;;;;11.67;11.67;;;;;19.57;56.58;100865.09;4998837;28;45435;-60
2021/10/20 03:59:35;;;;;;;;;16.67;13.00;;;;;19.56;56.37;100858.88;4999045;28;45345;-61
2021/10/20 04:02:01;;;;;;;;;14.67;12.33;;;;;19.56;56.63;100858.88;4998807;28;46106;-63
2021/10/20 04:04:26;;;;;;;;;12.67;10.00;;;;;19.58;56.54;100858.00;4997833;28;45229;-62
2021/10/20 04:06:51;;;;;;;;;14.00;13.00;;;;;19.58;56.63;100852.66;4998681;28;45364;-60
2021/10/20 04:09:17;;;;;;;;;16.00;13.00;;;;;19.58;56.55;100832.22;4998821;28;45360;-62
2021/10/20 04:11:43;;;;;;;;;9.33;9.00;;;;;19.57;56.77;100817.13;4997858;28;45532;-61
2021/10/20 04:14:08;;;;;;;;;12.33;12.33;;;;;19.58;56.75;100810.88;4998531;28;45377;-63
2021/10/20 04:16:34;;;;;;;;;9.33;9.33;;;;;19.58;56.54;100812.66;4998791;28;45311;-61
2021/10/20 04:18:59;;;;;;;;;13.00;13.00;;;;;19.57;56.56;100809.13;4998771;28;45305;-61
2021/10/20 04:21:24;;;;;;;;;14.00;12.00;;;;;19.56;56.44;100813.56;4998465;28;46984;-62
2021/10/20 04:23:50;;;;;;;;;11.33;11.33;;;;;19.56;56.27;100816.22;4998384;28;45402;-61
2021/10/20 04:26:15;;;;;;;;;11.00;11.00;;;;;19.57;56.61;100819.78;4998460;28;45443;-61
2021/10/20 04:28:41;;;;;;;;;10.67;10.00;;;;;19.58;56.43;100828.66;4999011;28;45293;-60
2021/10/20 04:31:06;;;;;;;;;12.00;11.00;;;;;19.59;56.54;100817.06;4998022;28;47132;-59
2021/10/20 04:33:32;;;;;;;;;11.33;11.33;;;;;19.58;56.51;100816.22;4998343;28;45242;-60
2021/10/20 04:35:57;;;;;;;;;13.67;12.00;;;;;19.58;56.60;100808.22;4998512;28;45510;-61
2021/10/20 04:38:23;;;;;;;;;13.33;11.00;;;;;19.58;56.76;100796.66;4998540;28;45218;-59
2021/10/20 04:40:48;;;;;;;;;13.33;13.33;;;;;19.57;56.46;100814.44;4998164;28;46450;-59
2021/10/20 04:43:13;;;;;;;;;14.00;11.33;;;;;19.58;56.42;100815.34;4998183;28;45325;-59
2021/10/20 04:45:39;;;;;;;;;9.00;9.00;;;;;19.57;56.79;100822.44;4998141;28;45209;-60
2021/10/20 04:48:05;;;;;;;;;12.00;10.33;;;;;19.58;56.56;100826.00;4998602;28;45487;-60
2021/10/20 04:50:30;;;;;;;;;13.33;13.33;;;;;19.58;56.44;100821.56;4997933;28;46266;-59
2021/10/20 04:52:56;;;;;;;;;12.33;10.67;;;;;19.58;56.70;100818.00;4997971;28;45323;-60
2021/10/20 04:55:21;;;;;;;;;10.33;9.00;;;;;19.57;56.69;100825.09;4998014;28;45416;-60
2021/10/20 04:57:51;;;;;;;;;13.00;9.33;;;;;19.59;56.54;100841.06;4998036;28;45246;-60
2021/10/20 05:00:18;;;;;;;;;11.00;11.00;;;;;19.58;56.55;100831.34;4997928;28;47026;-61
2021/10/20 05:02:44;;;;;;;;;13.00;11.00;;;;;19.58;56.55;100847.31;4997817;28;45319;-59
2021/10/20 05:05:09;;;;;;;;;12.00;10.00;;;;;19.58;56.46;100842.88;4997305;28;45259;-59
2021/10/20 05:07:49;;;;;;;;;11.00;11.00;;;;;19.57;56.56;100830.44;4998115;28;45446;-64
2021/10/20 05:10:14;;;;;;;;;9.67;9.67;;;;;19.59;56.57;100828.63;4997872;28;46201;-64
2021/10/20 05:12:39;;;;;;;;;13.00;12.33;;;;;19.60;56.31;100830.41;4997513;28;45386;-64
2021/10/20 05:15:05;;;;;;;;;9.33;9.33;;;;;19.60;56.40;100838.41;4997956;28;45787;-64
2021/10/20 05:17:30;;;;;;;;;13.67;11.33;;;;;19.60;56.36;100825.06;4995448;28;45384;-64
2021/10/20 05:19:56;;;;;;;;;12.00;10.33;;;;;19.60;56.61;100808.19;4997361;28;46270;-64
2021/10/20 05:22:21;;;;;;;;;10.67;10.67;;;;;19.60;56.39;100814.41;4997483;28;45392;-65
2021/10/20 05:24:46;;;;;;;;;10.33;9.67;;;;;19.62;56.38;100819.69;4997159;28;45389;-65
2021/10/20 05:27:12;;;;;;;;;11.33;10.67;;;;;19.60;56.57;100797.50;4997820;28;45210;-64
2021/10/20 05:29:38;;;;;;;;;14.00;11.67;;;;;19.60;56.60;100795.75;4979332;28;46825;-65
2021/10/20 05:32:04;;;;;;;;;12.00;9.33;;;;;19.60;56.83;100786.84;4996738;28;45352;-65
2021/10/20 05:34:29;;;;;;;;;10.67;10.67;;;;;19.60;56.79;100794.84;4997408;28;45347;-65
2021/10/20 05:36:55;;;;;;;;;13.00;13.00;;;;;19.61;56.71;100772.59;4997393;28;45251;-63
2021/10/20 05:39:20;;;;;;;;;10.67;9.33;;;;;19.65;56.92;100779.66;4997207;28;47332;-58
2021/10/20 05:41:45;;;;;;;;;13.33;9.00;;;;;19.95;58.71;100758.56;4996831;28;45426;-57
2021/10/20 05:44:13;;;;;;;;;10.67;10.33;;;;;20.40;61.06;100762.06;4997232;28;45278;-57
2021/10/20 05:46:38;;;;;;;;;;;;;;;20.77;61.30;100759.44;4999754;28;45379;-58
2021/10/20 05:49:04;;;;;;;;;14.33;13.00;;;;;20.89;62.98;100747.56;4997179;28;47262;-57
2021/10/20 05:51:29;;;;;;;;;21.67;17.67;;;;;20.92;64.50;100750.13;4997124;28;45459;-59
2021/10/20 05:53:54;;;;;;;;;19.67;14.67;;;;;20.90;66.35;100746.63;4996947;28;45253;-59
2021/10/20 05:56:20;;;;;;;;;20.67;14.00;;;;;20.87;68.32;100750.28;4996911;28;45356;-57
2021/10/20 05:58:45;;;;;;;;;23.00;17.67;;;;;20.85;69.39;100760.13;4996803;28;46160;-58
2021/10/20 06:01:12;;;;;;;;;19.33;13.00;;;;;20.83;71.57;100754.78;4996822;28;45404;-58
2021/10/20 06:03:38;;;;;;;;;21.00;17.00;;;;;20.82;72.63;100753.06;4997048;28;45214;-57
2021/10/20 06:06:03;;;;;;;;;16.33;14.33;;;;;20.82;73.63;100737.03;4996703;28;45515;-58
2021/10/20 06:08:29;;;;;;;;;11.67;10.33;;;;;20.81;71.02;100756.63;4996733;28;45999;-57
2021/10/20 06:10:54;;;;;;;;;10.00;10.00;;;;;20.76;64.62;100760.34;4996679;28;45417;-50
2021/10/20 06:13:19;;;;;;;;;10.00;7.67;;;;;20.68;62.29;100742.72;4996857;28;45345;-56
2021/10/20 06:15:45;;;;;;;;;10.00;10.00;;;;;20.62;60.83;100745.53;4979325;28;45378;-53
2021/10/20 06:18:11;;;;;;;;;10.33;7.67;;;;;20.57;60.21;100734.09;4996863;28;46324;-55
2021/10/20 06:20:36;;;;;;;;;11.00;9.33;;;;;20.51;59.18;100718.22;4996847;28;45483;-56
2021/10/20 06:23:03;;;;;;;;;12.33;9.00;;;;;20.44;58.74;100707.69;4996532;28;45453;-56
2021/10/20 06:25:28;;;;;;;;;7.00;7.00;;;;;20.41;58.34;100699.75;4996754;28;45485;-56
2021/10/20 06:27:53;;;;;;;;;11.00;10.00;;;;;20.36;58.04;100709.66;4996096;28;46076;-54
2021/10/20 06:30:19;;;;;;;;;10.33;9.33;;;;;20.33;57.78;100709.72;4996392;28;45458;-55
2021/10/20 06:32:45;;;;;;;;;10.33;8.00;;;;;20.30;57.62;100708.03;4996648;28;45340;-54
2021/10/20 06:35:11;;;;;;;;;10.67;9.67;;;;;20.27;57.48;100707.19;4996763;28;45540;-57
2021/10/20 06:37:38;;;;;;;;;10.67;8.67;;;;;20.24;57.20;100719.72;4978640;28;46309;-55
2021/10/20 06:40:06;;;;;;;;;11.00;9.33;;;;;20.22;57.26;100710.00;4996146;28;45413;-56
2021/10/20 06:42:32;;;;;;;;;11.00;9.67;;;;;20.20;57.11;100709.16;4997357;28;45324;-57
2021/10/20 06:44:57;;;;;;;;;9.67;9.67;;;;;20.18;56.93;100719.84;4999806;28;45503;-57
2021/10/20 06:47:25;;;;;;;;;10.67;9.33;;;;;20.16;57.01;100711.00;4999686;28;47009;-58
2021/10/20 06:49:50;;;;;;;;;10.00;8.67;;;;;20.14;57.16;100720.84;4999923;28;45441;-57
2021/10/20 06:52:15;;;;;;;;;9.00;9.00;;;;;20.13;56.88;100695.09;4999731;28;45341;-55
2021/10/20 06:54:41;;;;;;;;;11.33;9.00;;;;;20.12;56.98;100701.31;5000099;28;45423;-56
2021/10/20 06:57:06;;;;;;;;;13.33;9.33;;;;;20.09;56.79;100696.06;4999689;28;47081;-56
2021/10/20 06:59:31;;;;;;;;;11.00;8.00;;;;;20.07;56.68;100693.41;4999858;28;45373;-55
2021/10/20 07:01:57;;;;;;;;;9.00;9.00;;;;;20.07;56.73;100681.84;4999703;28;45401;-56
2021/10/20 07:04:22;;;;;;;;;9.00;9.00;;;;;20.06;56.61;100686.31;4999796;28;45279;-56
2021/10/20 07:06:50;;;;;;;;;9.00;8.00;;;;;20.06;56.82;100669.41;4999481;28;47002;-55
2021/10/20 07:09:16;;;;;;;;;13.33;11.67;;;;;20.05;56.92;100670.34;4999570;28;45278;-56
2021/10/20 07:11:41;;;;;;;;;11.00;10.00;;;;;20.03;56.55;100678.34;4999883;28;45415;-57
2021/10/20 07:14:06;;;;;;;;;9.67;9.33;;;;;20.01;56.59;100675.72;4999808;28;45569;-56
2021/10/20 07:16:34;;;;;;;;;8.33;8.33;;;;;20.01;56.59;100670.38;4999412;28;46436;-56
2021/10/20 07:19:03;;;;;;;;;8.67;8.67;;;;;20.00;56.45;100674.00;4981740;28;45399;-55
2021/10/20 07:21:29;;;;;;;;;11.33;11.33;;;;;20.00;56.46;100668.66;4999477;28;45215;-56
2021/10/20 07:23:54;;;;;;;;;10.33;9.00;;;;;19.98;56.39;100662.47;4999514;28;45381;-55
2021/10/20 07:26:21;;;;;;;;;11.00;8.33;;;;;19.98;56.25;100657.13;4999217;28;46108;-56
2021/10/20 07:28:47;;;;;;;;;8.67;8.67;;;;;19.98;56.54;100650.91;4999192;28;45459;-56
2021/10/20 07:31:13;;;;;;;;;11.67;8.67;;;;;19.97;56.30;100658.03;4998668;28;45471;-56
2021/10/20 07:33:38;;;;;;;;;8.67;8.67;;;;;19.97;56.20;100662.47;4999647;28;45301;-56
2021/10/20 07:36:04;;;;;;;;;11.33;11.33;;;;;19.96;56.34;100669.63;4998913;28;46216;-56
2021/10/20 07:38:29;;;;;;;;;9.33;9.33;;;;;19.96;56.27;100671.41;4998896;28;45388;-55
2021/10/20 07:40:54;;;;;;;;;10.33;10.33;;;;;19.96;56.29;100666.97;4999079;28;45627;-56
2021/10/20 07:43:20;;;;;;;;;13.00;11.67;;;;;19.95;56.27;100685.66;4998582;28;45455;-55
2021/10/20 07:45:46;;;;;;;;;15.33;11.33;;;;;19.95;56.17;100678.53;4999192;28;46993;-56
2021/10/20 07:48:11;;;;;;;;;13.33;11.33;;;;;19.93;56.27;100667.03;4999101;28;45309;-56
2021/10/20 07:50:37;;;;;;;;;11.00;10.33;;;;;19.94;56.31;100700.81;4999051;28;45266;-56
2021/10/20 07:53:03;;;;;;;;;13.67;10.33;;;;;19.93;56.33;100709.72;4998707;28;45250;-55
2021/10/20 07:55:29;;;;;;;;;12.33;10.33;;;;;19.93;56.28;100701.69;4980972;28;47123;-56
2021/10/20 07:57:55;;;;;;;;;13.00;11.00;;;;;19.92;56.46;100707.97;4998953;28;45290;-55
2021/10/20 08:00:22;;;;;;;;;10.00;9.00;;;;;19.93;56.34;100704.38;4998745;28;45313;-56
2021/10/20 08:02:47;;;;;;;;;11.67;10.67;;;;;19.91;56.44;100711.53;4998980;28;45687;-56
2021/10/20 08:05:14;;;;;;;;;14.33;14.00;;;;;19.90;56.35;100715.13;4998641;28;46034;-56
2021/10/20 08:07:44;;;;;;;;;10.33;10.33;;;;;19.92;56.34;100725.75;4998662;28;45463;-55
2021/10/20 08:10:19;;;;;;;;;10.00;9.33;;;;;19.92;56.27;100717.75;4998689;28;45468;-57
2021/10/20 08:12:45;;;;;;;;;10.33;10.33;;;;;19.90;55.93;100715.13;4998978;28;45327;-54
2021/10/20 08:15:12;;;;;;;;;11.67;10.00;;;;;19.91;56.30;100706.19;4998295;28;45238;-56
2021/10/20 08:17:38;;;;;;;;;10.00;10.00;;;;;19.89;56.30;100724.91;4998266;28;45495;-55
2021/10/20 08:20:06;;;;;;;;;12.67;10.33;;;;;19.89;56.23;100726.69;4998503;28;45422;-57
2021/10/20 08:22:32;;;;;;;;;10.33;9.67;;;;;19.88;56.23;100731.13;4998726;28;45379;-56
2021/10/20 08:24:57;;;;;;;;;11.67;11.00;;;;;19.89;56.31;100724.03;4998049;28;46155;-56
2021/10/20 08:27:22;;;;;;;;;12.33;10.33;;;;;19.88;56.47;100728.47;4998456;28;45233;-56
2021/10/20 08:29:48;;;;;;;;;10.67;10.67;;;;;19.88;56.12;100727.63;4998209;28;45461;-56
2021/10/20 08:32:13;;;;;;;;;10.67;10.33;;;;;19.88;56.22;100731.13;4998354;28;45290;-56
2021/10/20 08:34:39;;;;;;;;;13.00;10.67;;;;;19.87;56.17;100725.84;4997891;28;47191;-56
2021/10/20 08:37:04;;;;;;;;;13.00;11.33;;;;;19.88;56.39;100723.13;4998338;28;45179;-55
2021/10/20 08:39:30;;;;;;;;;11.67;10.00;;;;;19.87;56.31;100718.72;4998190;28;45274;-56
2021/10/20 08:41:57;;;;;;;;;12.67;11.00;;;;;19.87;56.36;100721.41;4998458;28;45440;-57
2021/10/20 08:44:23;;;;;;;;;12.33;8.67;;;;;19.86;56.19;100719.63;4998061;28;46396;-56
2021/10/20 08:46:51;;;;;;;;;13.67;9.67;;;;;19.87;56.41;100723.19;4997728;28;45410;-56
2021/10/20 08:49:17;;;;;;;;;10.33;10.33;;;;;19.87;56.17;100723.19;4998173;28;45328;-56
2021/10/20 08:51:44;;;;;;;;;12.67;12.67;;;;;19.87;56.24;100733.84;4998285;28;45495;-56
2021/10/20 08:54:09;;;;;;;;;13.00;10.33;;;;;19.86;56.39;100737.44;4997698;28;46250;-55
2021/10/20 08:56:35;;;;;;;;;12.67;12.67;;;;;19.87;56.33;100742.75;4997899;28;45821;-57
2021/10/20 08:59:01;;;;;;;;;12.67;10.33;;;;;19.86;56.41;100735.63;4998087;28;45299;-55
2021/10/20 09:01:27;;;;;;;;;10.00;9.00;;;;;19.86;56.31;100729.44;4998106;28;45392;-57
2021/10/20 09:03:52;;;;;;;;;14.00;10.67;;;;;19.86;56.49;100734.78;4997438;28;47130;-55
2021/10/20 09:06:18;;;;;;;;;13.00;11.33;;;;;19.86;56.30;100734.78;4996662;28;45332;-55
2021/10/20 09:08:45;;;;;;;;;12.67;12.33;;;;;19.86;56.35;100729.44;4997904;28;45434;-55
2021/10/20 09:13:59;;;;;;;;;11.33;11.00;;;;;19.85;56.16;100717.00;4997289;28;45308;-55
2021/10/20 09:16:25;;;;;;;;;16.00;13.00;;;;;19.85;56.33;100717.00;4997400;28;45349;-54
2021/10/20 09:18:50;;;;;;;;;13.67;10.33;;;;;19.84;56.27;100716.13;4997394;28;45478;-55
2021/10/20 09:21:15;;;;;;;;;11.00;11.00;;;;;19.85;56.23;100722.34;4998363;28;45353;-56
2021/10/20 09:23:41;;;;;;;;;14.33;11.67;;;;;19.85;56.27;100719.66;4997524;28;46147;-56
2021/10/20 09:26:08;;;;;;;;;16.33;12.67;;;;;19.84;56.05;100712.59;4997586;28;45381;-56
2021/10/20 09:28:37;;;;;;;;;14.00;14.00;;;;;19.85;56.39;100717.88;4997599;28;45425;-54
2021/10/20 09:31:05;;;;;;;;;12.33;11.33;;;;;19.84;56.21;100708.13;4997113;28;45618;-55
2021/10/20 09:33:36;;;;;;;;;11.33;10.67;;;;;19.85;56.32;100709.00;4997559;28;46328;-54
2021/10/20 09:36:07;;;;;;;;;12.67;12.67;;;;;19.84;56.36;100704.59;4997132;28;45349;-55
2021/10/20 09:38:39;;;;;;;;;14.33;11.33;;;;;19.84;56.36;100720.59;4997442;28;45409;-56
2021/10/20 09:41:07;;;;;;;;;12.67;11.00;;;;;19.83;56.27;100719.72;4997270;28;45643;-55
2021/10/20 09:43:38;;;;;;;;;10.00;10.00;;;;;19.83;56.35;100718.81;4996777;28;46487;-55
2021/10/20 09:46:04;;;;;;;;;16.00;14.00;;;;;19.83;56.30;100710.81;4996827;28;45233;-55
2021/10/20 09:48:29;;;;;;;;;11.67;11.33;;;;;19.82;56.46;100704.59;4997199;28;45338;-55
2021/10/20 09:50:59;;;;;;;;;17.00;12.67;;;;;19.83;56.29;100713.50;4997353;28;45222;-55
2021/10/20 09:53:27;;;;;;;;;13.67;11.33;;;;;19.83;56.46;100714.38;4996870;28;46217;-56
2021/10/20 09:55:52;;;;;;;;;9.00;9.00;;;;;19.83;56.25;100713.50;4996801;28;45254;-54
2021/10/20 09:58:18;;;;;;;;;14.00;11.33;;;;;19.82;56.38;100707.28;4996781;28;45225;-55
2021/10/20 10:00:44;;;;;;;;;10.67;10.67;;;;;19.83;56.25;100709.03;4997360;28;45440;-56
2021/10/20 10:03:11;;;;;;;;;13.67;10.33;;;;;19.83;56.41;100693.03;4996617;28;46092;-56
2021/10/20 10:05:36;;;;;;;;;12.33;12.33;;;;;19.82;56.47;100685.94;4996879;28;45595;-56
2021/10/20 10:08:03;;;;;;;;;12.00;10.67;;;;;19.83;56.36;100698.38;4996752;28;45249;-55
2021/10/20 10:10:28;;;;;;;;;15.33;10.33;;;;;19.83;56.13;100686.81;4997016;28;45462;-56
2021/10/20 10:13:00;;;;;;;;;13.00;11.67;;;;;19.83;56.41;100686.81;4996682;28;46242;-56
2021/10/20 10:15:28;;;;;;;;;12.67;11.33;;;;;19.82;56.18;100685.94;4996714;28;45361;-56
2021/10/20 10:17:55;;;;;;;;;13.00;12.00;;;;;19.82;56.33;100690.41;4996373;28;45392;-56
2021/10/20 10:20:23;;;;;;;;;11.67;10.33;;;;;19.83;56.27;100689.47;4996789;28;45496;-55
2021/10/20 10:22:56;;;;;;;;;14.67;13.33;;;;;19.83;56.17;100684.16;4996334;28;45280;-56
2021/10/20 10:25:38;;;;;;;;;15.67;12.67;;;;;19.82;56.19;100687.75;4996353;28;45329;-57
2021/10/20 10:28:07;;;;;;;;;14.00;12.00;;;;;19.82;56.44;100677.06;4996500;28;45484;-57
2021/10/20 10:30:52;;;;;;;;;13.00;9.00;;;;;19.82;56.30;100680.59;4996535;28;45567;-57
2021/10/20 10:33:23;;;;;;;;;15.00;12.00;;;;;19.82;56.33;100677.94;4996089;28;46425;-56
2021/10/20 10:36:07;;;;;;;;;11.33;10.67;;;;;19.81;56.44;100675.31;4996365;28;45356;-56
2021/10/20 10:38:45;;;;;;;;;16.33;15.67;;;;;19.82;56.26;100682.41;4996495;28;45496;-57
2021/10/20 10:41:17;;;;;;;;;19.33;13.00;;;;;19.82;56.41;100677.06;4996552;28;45427;-56
2021/10/20 10:44:00;;;;;;;;;14.67;13.67;;;;;19.81;56.35;100672.63;4996478;28;47164;-58
2021/10/20 10:46:28;;;;;;;;;13.33;13.00;;;;;19.81;56.27;100675.31;4995973;28;45369;-57
2021/10/20 10:48:54;;;;;;;;;15.33;13.00;;;;;19.79;56.78;100649.56;4996400;28;45335;-55
2021/10/20 10:51:20;;;;;;;;;13.67;11.00;;;;;19.81;56.43;100651.31;4996597;28;45363;-54
2021/10/20 10:53:54;;;;;;;;;10.33;10.33;;;;;19.81;56.61;100651.31;4996328;28;46088;-56
2021/10/20 10:56:20;;;;;;;;;15.00;14.00;;;;;19.79;56.53;100641.56;4996188;28;45394;-57
2021/10/20 10:59:04;;;;;;;;;11.33;11.33;;;;;19.81;56.44;100640.63;4996494;28;45428;-56
2021/10/20 11:01:36;;;;;;;;;12.67;11.33;;;;;19.79;56.61;100649.56;4996117;28;45317;-56
2021/10/20 11:04:22;;;;;;;;;10.67;10.67;;;;;19.79;56.38;100654.91;4995968;28;46960;-55
2021/10/20 11:06:51;;;;;;;;;12.33;12.00;;;;;19.79;56.60;100646.91;4995992;28;45372;-57
2021/10/20 11:09:30;;;;;;;;;12.67;11.33;;;;;19.78;56.50;100655.78;4996022;28;45377;-55
2021/10/20 11:11:55;;;;;;;;;11.33;9.00;;;;;19.79;56.40;100644.22;4996348;28;45617;-55
2021/10/20 11:14:23;;;;;;;;;13.33;11.00;;;;;19.78;56.40;100637.13;4996044;28;46920;-55